Time;durP1;ratioP1;P1;durP2;ratioP2;P2;SDS_P1;SDS_P2;PMS_P1;PMS_P2;Temp;Humidity;BMP_temperature;BMP_pressure;BME280_temperature;BME280_humidity;BME280_pressure;Samples;Min_cycle;Max_cycle;Signal;HPM_P1;HPM_P2
2022/08/13 00:01:37;;;;;;;6.32;4.75;;;18.90;99.90;;;;;;5039954;28;20768;-66
2022/08/13 00:04:08;;;;;;;8.63;4.97;;;18.90;99.90;;;;;;5050190;28;20083;-66
2022/08/13 00:09:09;;;;;;;6.72;5.30;;;18.90;99.90;;;;;;5046897;28;20479;-66
2022/08/13 00:14:24;;;;;;;9.93;5.13;;;18.80;99.90;;;;;;5044718;28;19974;-66
2022/08/13 00:16:51;;;;;;;7.05;4.88;;;18.50;99.90;;;;;;5044901;28;20049;-66
2022/08/13 00:19:19;;;;;;;8.15;5.35;;;18.30;99.90;;;;;;5046054;28;20088;-66
2022/08/13 00:21:46;;;;;;;8.18;5.00;;;18.20;99.90;;;;;;5040405;28;20049;-66
2022/08/13 00:24:11;;;;;;;6.05;4.90;;;18.20;99.90;;;;;;5060288;28;20091;-66
2022/08/13 00:26:37;;;;;;;5.72;4.93;;;18.10;99.90;;;;;;5042278;28;20480;-66
2022/08/13 00:29:03;;;;;;;8.85;4.80;;;18.10;99.90;;;;;;5040333;28;20043;-66
2022/08/13 00:31:31;;;;;;;7.65;5.40;;;18.00;99.90;;;;;;5041474;28;20487;-66
2022/08/13 00:33:57;;;;;;;5.70;4.97;;;18.00;99.90;;;;;;5047040;28;20037;-66
2022/08/13 00:36:23;;;;;;;5.20;4.65;;;17.90;99.90;;;;;;5044947;28;20079;-66
2022/08/13 00:38:53;;;;;;;6.18;5.30;;;17.90;99.90;;;;;;5040518;28;20131;-66
2022/08/13 00:41:38;;;;;;;6.97;4.88;;;17.90;99.90;;;;;;5045045;28;20391;-66
2022/08/13 00:44:17;;;;;;;12.68;5.53;;;17.90;99.90;;;;;;5058199;28;20044;-65
2022/08/13 00:46:45;;;;;;;6.07;5.22;;;17.90;99.90;;;;;;5055202;28;20040;-66
2022/08/13 00:49:12;;;;;;;5.97;4.60;;;17.80;99.90;;;;;;5042882;28;20552;-66
2022/08/13 00:51:40;;;;;;;7.57;5.03;;;17.70;99.90;;;;;;5042592;28;20037;-65
2022/08/13 00:54:09;;;;;;;7.80;5.78;;;17.70;99.90;;;;;;5046125;28;20526;-66
2022/08/13 00:56:37;;;;;;;10.77;6.43;;;17.70;99.90;;;;;;5043185;28;20488;-66
2022/08/13 00:59:11;;;;;;;6.88;5.30;;;17.60;99.90;;;;;;5057617;28;20037;-66
2022/08/13 01:01:42;;;;;;;6.63;5.70;;;17.50;99.90;;;;;;5060718;28;20074;-66
2022/08/13 01:04:07;;;;;;;9.30;5.90;;;17.50;99.90;;;;;;5060221;28;20045;-66
2022/08/13 01:06:35;;;;;;;7.15;5.55;;;17.50;99.90;;;;;;5042820;28;20049;-66
2022/08/13 01:09:02;;;;;;;7.13;5.97;;;17.60;99.90;;;;;;5043389;28;20037;-66
2022/08/13 01:11:32;;;;;;;11.43;6.07;;;17.50;99.90;;;;;;5040618;28;20033;-66
2022/08/13 01:14:00;;;;;;;7.85;6.15;;;17.60;99.90;;;;;;5044813;28;20025;-66
2022/08/13 01:16:28;;;;;;;7.95;6.10;;;17.60;99.90;;;;;;5042252;28;20040;-66
2022/08/13 01:18:54;;;;;;;9.85;6.07;;;17.60;99.90;;;;;;5035496;28;20488;-66
2022/08/13 01:21:23;;;;;;;9.25;6.03;;;17.70;99.90;;;;;;5043105;28;20036;-65
2022/08/13 01:23:52;;;;;;;7.80;6.30;;;17.80;99.90;;;;;;5043220;28;20044;-66
2022/08/13 01:26:20;;;;;;;10.10;5.88;;;17.80;99.90;;;;;;5042884;28;20369;-66
2022/08/13 01:28:47;;;;;;;9.65;6.32;;;17.80;99.90;;;;;;5041654;28;20378;-66
2022/08/13 01:31:15;;;;;;;8.55;6.10;;;17.90;99.90;;;;;;5042424;28;20037;-66
2022/08/13 01:33:43;;;;;;;8.48;5.90;;;17.90;99.90;;;;;;5044549;28;20123;-65
2022/08/13 01:36:10;;;;;;;8.80;5.97;;;17.90;99.90;;;;;;5039469;28;20055;-66
2022/08/13 01:38:38;;;;;;;8.50;6.32;;;17.90;99.90;;;;;;5044533;28;20052;-67
2022/08/13 01:41:08;;;;;;;6.82;5.60;;;17.90;99.90;;;;;;5058093;28;20079;-66
2022/08/13 01:43:39;;;;;;;8.50;5.72;;;18.00;99.90;;;;;;5043046;28;20462;-66
2022/08/13 01:46:06;;;;;;;9.60;6.20;;;17.90;99.90;;;;;;5043857;28;20127;-65
2022/08/13 01:51:28;;;;;;;9.30;6.10;;;17.90;99.90;;;;;;5041893;28;20052;-66
2022/08/13 01:53:59;;;;;;;7.03;5.75;;;17.90;99.90;;;;;;5058984;28;20045;-66
2022/08/13 01:56:27;;;;;;;7.57;5.82;;;17.90;99.90;;;;;;5043212;28;20049;-66
2022/08/13 01:58:55;;;;;;;8.90;5.63;;;17.90;99.90;;;;;;5046083;28;20052;-66
2022/08/13 02:01:25;;;;;;;8.85;5.50;;;17.90;99.90;;;;;;5045402;28;20045;-66
2022/08/13 02:03:51;;;;;;;6.38;5.32;;;17.90;99.90;;;;;;5043584;28;20037;-65
2022/08/13 02:06:28;;;;;;;6.20;5.60;;;17.90;99.90;;;;;;5047463;28;20457;-66
2022/08/13 02:08:59;;;;;;;9.77;5.03;;;17.90;99.90;;;;;;5046981;28;20120;-66
2022/08/13 02:11:32;;;;;;;8.30;5.13;;;17.90;99.90;;;;;;5046386;28;20049;-66
2022/08/13 02:13:59;;;;;;;8.70;5.40;;;17.90;99.90;;;;;;5052788;28;20037;-66
2022/08/13 02:16:32;;;;;;;8.43;5.10;;;17.90;99.90;;;;;;5048902;28;20033;-66
2022/08/13 02:18:57;;;;;;;;;;;17.90;99.90;;;;;;5048460;28;20083;-66
2022/08/13 02:21:25;;;;;;;6.43;4.95;;;17.80;99.90;;;;;;5049471;28;20376;-66
2022/08/13 02:23:58;;;;;;;10.73;5.15;;;17.80;99.90;;;;;;5062790;28;20526;-65
2022/08/13 02:26:27;;;;;;;7.43;5.20;;;17.80;99.90;;;;;;5047274;28;20128;-66
2022/08/13 02:28:54;;;;;;;7.47;5.03;;;17.80;99.90;;;;;;5046195;28;20116;-66
2022/08/13 02:31:21;;;;;;;8.45;5.38;;;17.80;99.90;;;;;;5040726;28;20037;-66
2022/08/13 02:33:46;;;;;;;5.68;5.07;;;17.80;99.90;;;;;;5049527;28;20041;-66
2022/08/13 02:36:12;;;;;;;6.97;4.50;;;17.80;99.90;;;;;;5048855;28;20059;-66
2022/08/13 02:38:39;;;;;;;8.00;5.10;;;17.80;99.90;;;;;;5064147;28;20123;-66
2022/08/13 02:43:50;;;;;;;5.30;4.20;;;17.70;99.90;;;;;;5044068;28;20056;-66
2022/08/13 02:46:16;;;;;;;5.95;4.60;;;17.70;99.90;;;;;;5046924;28;20040;-66
2022/08/13 02:48:43;;;;;;;7.93;5.15;;;17.70;99.90;;;;;;5043561;28;20037;-66
2022/08/13 02:51:12;;;;;;;5.88;4.68;;;17.70;99.90;;;;;;5046452;28;20043;-66
2022/08/13 02:53:41;;;;;;;5.55;4.90;;;17.60;99.90;;;;;;5048432;28;20499;-66
2022/08/13 02:56:08;;;;;;;7.40;4.72;;;17.60;99.90;;;;;;5043891;28;20388;-66
2022/08/13 02:58:36;;;;;;;10.07;5.22;;;17.60;99.90;;;;;;5045048;28;20091;-66
2022/08/13 03:01:03;;;;;;;6.85;4.90;;;17.60;99.90;;;;;;5045084;28;20041;-66
2022/08/13 03:03:31;;;;;;;7.22;4.70;;;17.50;99.90;;;;;;5061341;28;20040;-66
2022/08/13 03:05:57;;;;;;;5.72;4.78;;;17.50;99.90;;;;;;5046437;28;20426;-65
2022/08/13 03:08:23;;;;;;;6.07;4.93;;;17.50;99.90;;;;;;5045037;28;20102;-66
2022/08/13 03:10:49;;;;;;;8.30;4.90;;;17.40;99.90;;;;;;5045989;28;20033;-66
2022/08/13 03:13:29;;;;;;;7.85;4.97;;;17.30;99.90;;;;;;5043283;28;20040;-65
2022/08/13 03:15:56;;;;;;;8.00;4.90;;;17.30;99.90;;;;;;5058480;28;20086;-66
2022/08/13 03:18:23;;;;;;;7.35;5.10;;;17.30;99.90;;;;;;5041775;28;20439;-66
2022/08/13 03:20:50;;;;;;;5.82;4.80;;;17.20;99.90;;;;;;5058030;28;20045;-66
2022/08/13 03:23:17;;;;;;;6.95;4.70;;;17.20;99.90;;;;;;5045658;28;20494;-66
2022/08/13 03:25:45;;;;;;;6.20;4.60;;;17.20;99.90;;;;;;5035626;28;20036;-65
2022/08/13 03:28:10;;;;;;;8.20;5.03;;;17.10;99.90;;;;;;5036158;28;20088;-66
2022/08/13 03:30:36;;;;;;;6.57;5.05;;;17.10;99.90;;;;;;5058604;28;20041;-66
2022/08/13 03:33:10;;;;;;;5.78;4.95;;;17.10;99.90;;;;;;5044329;28;20037;-66
2022/08/13 03:35:37;;;;;;;6.07;5.03;;;17.10;99.90;;;;;;5043864;28;20028;-66
2022/08/13 03:38:05;;;;;;;6.20;5.28;;;17.10;99.90;;;;;;5046768;28;20033;-66
2022/08/13 03:41:00;;;;;;;6.68;5.35;;;17.10;99.90;;;;;;5044661;28;20071;-66
2022/08/13 03:43:18;;;;;;;8.10;5.22;;;17.00;99.90;;;;;;5049402;28;20087;-66
2022/08/13 03:45:44;;;;;;;7.78;5.30;;;17.00;99.90;;;;;;5061908;28;20048;-66
2022/08/13 03:48:14;;;;;;;7.28;4.95;;;17.00;99.90;;;;;;5043691;28;20554;-66
2022/08/13 03:50:41;;;;;;;6.13;5.10;;;17.00;99.90;;;;;;5043753;28;20435;-66
2022/08/13 03:53:07;;;;;;;9.93;5.00;;;17.00;99.90;;;;;;5047270;28;20079;-66
2022/08/13 03:55:33;;;;;;;7.47;4.90;;;16.90;99.90;;;;;;5041846;28;20087;-66
2022/08/13 03:58:00;;;;;;;6.22;4.85;;;16.90;99.90;;;;;;5042360;28;20033;-66
2022/08/13 04:00:30;;;;;;;7.25;4.97;;;16.90;99.90;;;;;;5038778;28;20159;-66
2022/08/13 04:02:56;;;;;;;7.88;4.85;;;16.90;99.90;;;;;;5044190;28;20041;-66
2022/08/13 04:05:22;;;;;;;8.27;5.13;;;16.80;99.90;;;;;;5047015;28;20041;-66
2022/08/13 04:07:50;;;;;;;8.52;4.88;;;16.80;99.90;;;;;;5042218;28;20094;-66
2022/08/13 04:10:16;;;;;;;6.10;5.00;;;16.80;99.90;;;;;;5043323;28;20069;-66
2022/08/13 04:12:42;;;;;;;6.75;5.53;;;16.80;99.90;;;;;;5042978;28;20066;-66
2022/08/13 04:15:08;;;;;;;8.20;5.35;;;16.80;99.90;;;;;;5044278;28;20479;-66
2022/08/13 04:17:36;;;;;;;5.97;5.13;;;16.70;99.90;;;;;;5043982;28;20048;-66
2022/08/13 04:20:04;;;;;;;7.45;5.40;;;16.60;99.90;;;;;;5047064;28;20045;-67
2022/08/13 04:22:29;;;;;;;8.82;5.28;;;16.60;99.90;;;;;;5050264;28;20407;-66
2022/08/13 04:24:55;;;;;;;9.30;5.20;;;16.60;99.90;;;;;;5047267;28;20044;-66
2022/08/13 04:27:21;;;;;;;7.47;5.72;;;16.60;99.90;;;;;;5044482;28;20136;-66
2022/08/13 04:29:48;;;;;;;6.07;5.05;;;16.60;99.90;;;;;;5043267;28;20047;-66
2022/08/13 04:32:13;;;;;;;6.97;5.38;;;16.50;99.90;;;;;;5036962;28;20299;-66
2022/08/13 04:34:39;;;;;;;7.68;5.40;;;16.40;99.90;;;;;;5061269;28;20098;-66
2022/08/13 04:37:07;;;;;;;8.45;5.10;;;16.50;99.90;;;;;;5060997;28;20039;-66
2022/08/13 04:39:33;;;;;;;8.65;5.07;;;16.50;99.90;;;;;;5044043;28;20051;-66
2022/08/13 04:41:59;;;;;;;7.80;4.90;;;16.50;99.90;;;;;;5044617;28;20037;-66
2022/08/13 04:44:25;;;;;;;6.00;4.97;;;16.50;99.90;;;;;;5044301;28;20045;-66
2022/08/13 04:46:51;;;;;;;5.28;4.38;;;16.50;99.90;;;;;;5040487;28;20048;-67
2022/08/13 04:49:16;;;;;;;14.18;4.63;;;16.50;99.90;;;;;;5050319;28;20404;-66
2022/08/13 04:51:42;;;;;;;8.05;4.90;;;16.50;99.90;;;;;;5045890;28;20029;-65
2022/08/13 04:54:07;;;;;;;5.88;4.80;;;16.60;99.90;;;;;;5061176;28;20040;-66
2022/08/13 04:56:33;;;;;;;12.60;5.00;;;16.50;99.90;;;;;;5022351;28;20037;-66
2022/08/13 04:58:59;;;;;;;5.90;4.93;;;16.60;99.90;;;;;;5057079;28;20039;-66
2022/08/13 05:01:24;;;;;;;12.73;5.00;;;16.70;99.90;;;;;;5045762;28;20099;-66
2022/08/13 05:03:51;;;;;;;14.45;5.05;;;16.70;99.90;;;;;;5040080;28;20159;-66
2022/08/13 05:06:20;;;;;;;9.88;4.85;;;16.80;99.90;;;;;;5041534;28;20083;-65
2022/08/13 05:08:47;;;;;;;7.32;4.75;;;16.80;99.90;;;;;;5043620;28;20049;-66
2022/08/13 05:11:13;;;;;;;7.45;4.40;;;16.80;99.90;;;;;;5041589;28;20387;-66
2022/08/13 05:13:40;;;;;;;7.97;4.50;;;16.90;99.90;;;;;;5047812;28;20037;-66
2022/08/13 05:16:08;;;;;;;5.78;4.50;;;16.90;99.90;;;;;;5045268;28;20037;-66
2022/08/13 05:18:37;;;;;;;7.95;4.50;;;17.00;99.90;;;;;;5049289;28;20036;-66
2022/08/13 05:21:05;;;;;;;5.35;4.18;;;17.00;99.90;;;;;;5027626;28;20041;-66
2022/08/13 05:23:33;;;;;;;5.72;4.35;;;17.10;99.90;;;;;;5058555;28;20037;-66
2022/08/13 05:25:59;;;;;;;5.70;4.05;;;17.10;99.90;;;;;;5045540;28;20037;-66
2022/08/13 05:28:29;;;;;;;5.78;4.22;;;17.20;99.90;;;;;;5043798;28;20383;-66
2022/08/13 05:30:55;;;;;;;5.90;4.00;;;17.30;99.90;;;;;;5044895;28;20081;-65
2022/08/13 05:33:23;;;;;;;6.70;4.10;;;17.30;99.90;;;;;;5043482;28;20087;-66
2022/08/13 05:35:57;;;;;;;6.97;3.97;;;17.40;99.90;;;;;;5042566;28;20045;-66
2022/08/13 05:38:25;;;;;;;5.85;4.13;;;17.50;99.90;;;;;;5047403;28;20060;-66
2022/08/13 05:40:56;;;;;;;5.80;4.30;;;17.50;99.90;;;;;;5049437;28;20044;-66
2022/08/13 05:43:24;;;;;;;4.93;4.30;;;17.60;99.90;;;;;;5046844;28;20037;-66
2022/08/13 05:45:57;;;;;;;5.97;4.30;;;17.70;99.90;;;;;;5050715;28;20025;-66
2022/08/13 05:48:39;;;;;;;9.10;4.38;;;17.70;99.90;;;;;;5040470;28;20040;-66
2022/08/13 05:51:08;;;;;;;7.15;4.28;;;17.90;99.90;;;;;;5048060;28;20094;-65
2022/08/13 05:53:37;;;;;;;6.70;4.43;;;18.00;99.90;;;;;;5040762;28;20041;-65
2022/08/13 05:56:06;;;;;;;7.30;4.60;;;18.00;99.90;;;;;;5048764;28;20033;-65
2022/08/13 05:58:34;;;;;;;5.13;4.45;;;18.10;99.90;;;;;;5045005;28;20043;-66
2022/08/13 06:03:44;;;;;;;6.53;4.15;;;18.30;99.90;;;;;;5042536;28;20052;-65
2022/08/13 06:06:14;;;;;;;7.25;4.03;;;18.50;99.90;;;;;;5046202;28;20701;-66
2022/08/13 06:08:42;;;;;;;5.20;4.15;;;18.60;99.90;;;;;;5061238;28;20135;-66
2022/08/13 06:11:16;;;;;;;5.63;4.10;;;18.70;99.90;;;;;;5048402;28;20036;-66
2022/08/13 06:13:43;;;;;;;9.80;4.30;;;18.80;99.90;;;;;;5030304;28;20041;-67
2022/08/13 06:16:12;;;;;;;7.20;3.90;;;18.90;99.90;;;;;;5063018;28;20033;-66
2022/08/13 06:18:40;;;;;;;4.93;3.88;;;19.00;99.90;;;;;;5050107;28;20127;-66
2022/08/13 06:21:11;;;;;;;7.38;4.28;;;19.10;99.90;;;;;;5050368;28;20040;-66
2022/08/13 06:23:38;;;;;;;7.93;3.95;;;19.30;99.90;;;;;;5048736;28;20395;-66
2022/08/13 06:26:06;;;;;;;8.00;3.85;;;19.40;99.90;;;;;;5047620;28;20395;-66
2022/08/13 06:28:32;;;;;;;5.97;3.63;;;19.50;99.90;;;;;;5047179;28;20409;-66
2022/08/13 06:31:06;;;;;;;6.88;3.92;;;19.60;99.90;;;;;;5050084;28;20041;-67
2022/08/13 06:33:34;;;;;;;7.78;3.72;;;19.80;99.90;;;;;;5052328;28;20045;-69
2022/08/13 06:36:06;;;;;;;5.40;3.63;;;19.90;99.90;;;;;;5048966;28;20107;-68
2022/08/13 06:38:39;;;;;;;4.37;3.80;;;20.10;99.90;;;;;;5052336;28;20037;-67
2022/08/13 06:41:07;;;;;;;4.22;3.58;;;20.20;99.90;;;;;;5050332;28;20033;-68
2022/08/13 06:43:44;;;;;;;6.13;3.55;;;20.40;99.90;;;;;;5051621;28;20102;-67
2022/08/13 06:46:12;;;;;;;5.05;3.60;;;20.60;99.90;;;;;;5046491;28;20043;-67
2022/08/13 06:48:39;;;;;;;4.18;3.40;;;20.70;99.90;;;;;;5045010;28;20037;-67
2022/08/13 06:51:06;;;;;;;5.00;3.40;;;20.90;99.90;;;;;;5051423;28;20128;-67
2022/08/13 06:53:37;;;;;;;5.00;3.50;;;21.00;99.90;;;;;;5051463;28;20044;-67
2022/08/13 06:56:06;;;;;;;4.93;2.90;;;21.20;99.90;;;;;;5060351;28;20037;-67
2022/08/13 06:58:32;;;;;;;6.82;3.40;;;21.30;99.90;;;;;;5051268;28;20391;-68
2022/08/13 07:00:59;;;;;;;3.40;3.10;;;21.40;99.90;;;;;;5051158;28;20128;-67
2022/08/13 07:03:27;;;;;;;4.43;3.10;;;21.50;99.90;;;;;;5050570;28;20041;-68
2022/08/13 07:05:53;;;;;;;4.80;3.03;;;21.70;99.90;;;;;;5049973;28;20037;-67
2022/08/13 07:08:20;;;;;;;3.45;3.15;;;21.80;99.90;;;;;;5049871;28;20127;-67
2022/08/13 07:10:51;;;;;;;4.03;2.95;;;21.90;99.90;;;;;;5048782;28;20044;-68
2022/08/13 07:13:17;;;;;;;6.32;3.28;;;22.00;99.90;;;;;;5049819;28;20045;-68
2022/08/13 07:15:51;;;;;;;2.97;2.78;;;22.10;99.90;;;;;;5050919;28;20033;-67
2022/08/13 07:18:17;;;;;;;3.15;2.85;;;22.30;99.90;;;;;;5050631;28;20048;-68
2022/08/13 07:20:44;;;;;;;7.03;2.78;;;22.40;99.90;;;;;;5051062;28;20045;-68
2022/08/13 07:23:11;;;;;;;4.30;2.92;;;22.50;99.90;;;;;;5050915;28;20408;-68
2022/08/13 07:25:39;;;;;;;5.90;2.90;;;22.70;99.90;;;;;;5048501;28;20083;-68
2022/08/13 07:28:05;;;;;;;3.53;2.85;;;22.70;99.90;;;;;;5048263;28;20067;-68
2022/08/13 07:30:31;;;;;;;2.53;2.33;;;22.90;99.90;;;;;;5051205;28;20438;-68
2022/08/13 07:32:57;;;;;;;6.78;2.92;;;23.10;99.90;;;;;;5050951;28;20037;-68
2022/08/13 07:35:23;;;;;;;3.17;2.70;;;23.20;99.90;;;;;;5050252;28;20043;-68
2022/08/13 07:37:52;;;;;;;3.45;2.58;;;23.30;99.90;;;;;;5050033;28;20076;-68
2022/08/13 07:40:19;;;;;;;4.43;2.50;;;23.40;99.90;;;;;;5050403;28;20448;-68
2022/08/13 07:42:45;;;;;;;5.70;2.97;;;23.50;99.90;;;;;;5046460;28;20602;-68
2022/08/13 07:45:20;;;;;;;3.30;2.50;;;23.70;99.90;;;;;;5048801;28;20136;-68
2022/08/13 07:47:50;;;;;;;4.30;2.58;;;23.80;99.90;;;;;;5050352;28;20048;-68
2022/08/13 07:50:16;;;;;;;5.00;2.20;;;24.00;99.90;;;;;;5050011;28;20093;-68
2022/08/13 07:52:42;;;;;;;4.38;3.10;;;24.00;99.90;;;;;;5048401;28;20048;-69
2022/08/13 07:55:08;;;;;;;6.07;2.17;;;24.20;99.90;;;;;;5048959;28;20052;-69
2022/08/13 07:57:36;;;;;;;3.75;2.35;;;24.20;99.90;;;;;;5047798;28;20061;-69
2022/08/13 08:00:04;;;;;;;4.68;2.50;;;24.40;99.90;;;;;;5043132;28;20543;-69
2022/08/13 08:02:32;;;;;;;2.70;2.45;;;24.40;99.90;;;;;;5047651;28;20055;-69
2022/08/13 08:04:58;;;;;;;4.55;2.40;;;24.60;99.90;;;;;;5050101;28;20037;-69
2022/08/13 08:07:27;;;;;;;5.18;2.88;;;24.70;99.90;;;;;;5045326;28;20052;-69
2022/08/13 08:09:54;;;;;;;5.15;2.53;;;24.80;99.90;;;;;;5049512;28;20049;-69
2022/08/13 08:12:35;;;;;;;2.45;2.25;;;24.90;99.90;;;;;;5049496;28;20102;-68
2022/08/13 08:15:06;;;;;;;4.00;2.35;;;25.00;99.90;;;;;;5045382;28;20041;-69
2022/08/13 08:17:32;;;;;;;8.55;2.63;;;25.10;99.90;;;;;;5046688;28;20123;-68
2022/08/13 08:19:57;;;;;;;2.65;2.30;;;25.30;99.90;;;;;;5049086;28;20120;-69
2022/08/13 08:22:23;;;;;;;3.88;2.10;;;25.30;99.90;;;;;;5047944;28;20044;-68
2022/08/13 08:24:50;;;;;;;3.08;2.15;;;25.40;99.90;;;;;;5045408;28;20182;-69
2022/08/13 08:27:17;;;;;;;3.33;2.30;;;25.50;99.90;;;;;;5047686;28;20062;-69
2022/08/13 08:29:44;;;;;;;3.22;2.35;;;25.50;99.90;;;;;;5043046;28;20504;-70
2022/08/13 08:32:11;;;;;;;3.67;2.10;;;25.70;99.90;;;;;;5045539;28;20052;-68
2022/08/13 08:34:46;;;;;;;4.43;2.30;;;25.70;99.60;;;;;;5047635;28;20041;-69
2022/08/13 08:42:55;;;;;;;3.42;2.20;;;26.00;99.10;;;;;;5048339;28;20056;-69
2022/08/13 08:45:22;;;;;;;2.42;2.22;;;26.00;99.00;;;;;;5048579;28;20051;-69
2022/08/13 08:47:48;;;;;;;3.45;2.10;;;26.10;98.60;;;;;;5046290;28;20040;-69
2022/08/13 08:50:16;;;;;;;2.45;2.20;;;26.20;98.20;;;;;;5048568;28;20233;-68
2022/08/13 08:55:36;;;;;;;4.85;2.30;;;26.30;97.60;;;;;;5048601;28;20075;-70
2022/08/13 08:58:04;;;;;;;3.08;2.40;;;26.40;97.30;;;;;;5046276;28;20041;-68
2022/08/13 09:00:33;;;;;;;3.22;2.17;;;26.60;97.70;;;;;;5028771;28;20419;-68
2022/08/13 09:02:59;;;;;;;3.22;2.17;;;26.70;97.40;;;;;;5045622;28;20087;-69
2022/08/13 09:05:26;;;;;;;5.72;2.20;;;26.80;97.10;;;;;;5028457;28;20419;-68
2022/08/13 09:07:52;;;;;;;3.22;2.50;;;26.80;96.40;;;;;;5031064;28;20029;-68
2022/08/13 09:10:20;;;;;;;2.40;2.20;;;26.90;95.70;;;;;;5031464;28;20099;-68
2022/08/13 09:12:48;;;;;;;4.00;2.45;;;27.00;95.20;;;;;;5058982;28;20029;-69
2022/08/13 09:15:18;;;;;;;4.25;2.38;;;27.10;95.30;;;;;;5048473;28;20152;-68
2022/08/13 09:17:45;;;;;;;4.43;2.58;;;27.10;95.50;;;;;;5040499;28;20136;-67
2022/08/13 09:20:15;;;;;;;6.45;2.70;;;27.20;95.30;;;;;;5062116;28;20036;-67
2022/08/13 09:22:41;;;;;;;2.72;2.10;;;27.20;94.60;;;;;;5044676;28;20079;-68
2022/08/13 09:25:08;;;;;;;2.80;2.38;;;27.30;93.40;;;;;;5048116;28;20041;-69
2022/08/13 09:27:35;;;;;;;4.60;2.40;;;27.40;93.80;;;;;;5047942;28;20067;-69
2022/08/13 09:30:03;;;;;;;2.75;2.10;;;27.40;93.60;;;;;;5048007;28;20049;-70
2022/08/13 09:32:29;;;;;;;2.65;2.22;;;27.40;93.50;;;;;;5043925;28;20480;-67
2022/08/13 09:34:55;;;;;;;3.28;2.30;;;27.40;93.10;;;;;;5044735;28;20489;-68
2022/08/13 09:37:23;;;;;;;4.53;2.05;;;27.50;92.60;;;;;;5047290;28;20075;-69
2022/08/13 09:40:05;;;;;;;3.30;2.20;;;27.50;91.40;;;;;;5049737;28;20048;-68
2022/08/13 09:42:45;;;;;;;3.70;2.38;;;27.60;91.30;;;;;;5054232;28;20041;-68
2022/08/13 09:45:10;;;;;;;2.40;2.20;;;27.70;91.50;;;;;;5048671;28;20044;-69
2022/08/13 09:47:36;;;;;;;2.40;2.20;;;27.70;91.80;;;;;;5047464;28;20040;-68
2022/08/13 09:50:03;;;;;;;7.05;2.17;;;27.80;91.90;;;;;;5053911;28;20044;-68
2022/08/13 09:52:30;;;;;;;4.70;2.30;;;27.80;91.00;;;;;;5046052;28;20478;-67
2022/08/13 09:54:57;;;;;;;4.60;2.55;;;27.90;91.30;;;;;;5048780;28;20053;-71
2022/08/13 09:57:23;;;;;;;3.33;2.20;;;28.00;90.60;;;;;;5064705;28;20098;-69
2022/08/13 09:59:50;;;;;;;4.78;2.40;;;28.10;90.30;;;;;;5047646;28;20508;-69
2022/08/13 10:02:16;;;;;;;6.00;2.28;;;28.10;90.40;;;;;;5047368;28;20049;-70
2022/08/13 10:04:42;;;;;;;3.53;2.38;;;28.20;90.70;;;;;;5048871;28;20044;-70
2022/08/13 10:07:11;;;;;;;2.40;2.20;;;28.30;90.60;;;;;;5046742;28;20692;-72
2022/08/13 10:09:38;;;;;;;3.58;2.40;;;28.30;90.00;;;;;;5047100;28;20045;-69
2022/08/13 10:12:06;;;;;;;9.35;2.70;;;28.40;90.10;;;;;;5048755;28;20036;-71
2022/08/13 10:14:33;;;;;;;4.05;2.30;;;28.40;89.20;;;;;;5041082;28;20380;-68
2022/08/13 10:16:59;;;;;;;2.85;2.10;;;28.50;88.90;;;;;;5043525;28;20122;-68
2022/08/13 10:19:25;;;;;;;3.10;2.20;;;28.50;87.80;;;;;;5048494;28;20475;-68
2022/08/13 10:21:51;;;;;;;5.43;2.40;;;28.50;84.60;;;;;;5047953;28;20040;-70
2022/08/13 10:24:17;;;;;;;3.55;2.17;;;28.50;85.50;;;;;;5041991;28;20440;-68
2022/08/13 10:26:42;;;;;;;2.38;2.15;;;28.50;84.10;;;;;;5054802;28;20047;-70
2022/08/13 10:29:09;;;;;;;4.18;2.03;;;28.60;84.10;;;;;;5050634;28;20150;-68
2022/08/13 10:31:35;;;;;;;3.58;2.15;;;28.60;82.00;;;;;;5055602;28;20037;-68
2022/08/13 10:34:01;;;;;;;2.22;1.90;;;28.70;82.30;;;;;;5045062;28;20120;-70
2022/08/13 10:36:28;;;;;;;3.67;2.03;;;28.70;82.60;;;;;;5047597;28;20618;-69
2022/08/13 10:38:55;;;;;;;3.45;2.00;;;28.80;82.70;;;;;;5047493;28;20041;-69
2022/08/13 10:41:21;;;;;;;5.53;2.15;;;28.80;81.80;;;;;;5041586;28;20060;-71
2022/08/13 10:43:48;;;;;;;2.30;2.00;;;28.80;81.20;;;;;;5042892;28;20492;-71
2022/08/13 10:46:20;;;;;;;4.15;2.28;;;28.80;80.80;;;;;;5048152;28;20048;-70
2022/08/13 10:48:51;;;;;;;3.25;2.20;;;28.90;79.10;;;;;;5042462;28;20245;-70
2022/08/13 10:51:17;;;;;;;3.88;2.30;;;28.90;79.70;;;;;;5048919;28;20522;-68
2022/08/13 10:53:55;;;;;;;3.85;2.10;;;28.90;79.90;;;;;;5060080;28;20064;-69
2022/08/13 10:56:22;;;;;;;4.10;2.20;;;29.00;79.80;;;;;;5043063;28;20079;-70
2022/08/13 10:58:48;;;;;;;4.90;2.20;;;28.90;77.30;;;;;;5050622;28;20183;-69
2022/08/13 11:01:15;;;;;;;3.20;2.15;;;29.00;77.00;;;;;;5061694;28;20488;-68
2022/08/13 11:03:44;;;;;;;5.90;2.10;;;28.90;76.60;;;;;;5046336;28;20033;-69
2022/08/13 11:06:11;;;;;;;4.78;2.00;;;29.00;78.30;;;;;;5044820;28;20484;-68
2022/08/13 11:08:37;;;;;;;3.28;2.08;;;28.90;76.20;;;;;;5057471;28;20057;-70
2022/08/13 11:11:09;;;;;;;3.97;1.90;;;28.90;75.50;;;;;;5058827;28;20119;-68
2022/08/13 11:13:39;;;;;;;3.65;2.17;;;28.90;75.60;;;;;;5035488;28;20080;-69
2022/08/13 11:16:56;;;;;;;2.90;1.83;;;28.90;76.10;;;;;;5056619;28;20055;-69
2022/08/13 11:18:55;;;;;;;3.00;2.70;;;29.00;75.90;;;;;;5048005;28;20053;-69
2022/08/13 11:21:22;;;;;;;2.20;2.05;;;29.00;76.10;;;;;;5043584;28;20060;-69
2022/08/13 11:23:48;;;;;;;9.13;2.20;;;29.10;77.00;;;;;;5055978;28;20403;-69
2022/08/13 11:26:13;;;;;;;3.75;2.08;;;29.10;74.60;;;;;;5044632;28;20048;-68
2022/08/13 11:28:39;;;;;;;3.28;2.00;;;29.10;74.70;;;;;;5050082;28;20048;-68
2022/08/13 11:31:04;;;;;;;2.33;2.00;;;29.10;75.50;;;;;;5042875;28;20094;-69
2022/08/13 11:33:30;;;;;;;2.30;2.08;;;29.20;76.00;;;;;;5024204;28;20484;-70
2022/08/13 11:35:56;;;;;;;4.65;2.17;;;29.20;74.80;;;;;;5044742;28;20033;-69
2022/08/13 11:38:23;;;;;;;3.63;2.20;;;29.10;72.40;;;;;;5044838;28;20036;-70
2022/08/13 11:40:55;;;;;;;4.55;2.17;;;29.20;73.10;;;;;;5044981;28;20064;-70
2022/08/13 11:43:26;;;;;;;3.42;2.08;;;29.20;72.20;;;;;;5042086;28;20068;-69
2022/08/13 11:45:52;;;;;;;6.90;2.30;;;29.20;72.60;;;;;;5044690;28;20048;-69
2022/08/13 11:48:19;;;;;;;2.72;2.20;;;29.20;73.70;;;;;;5043602;28;20574;-68
2022/08/13 11:50:45;;;;;;;4.15;2.13;;;29.30;74.20;;;;;;5043836;28;20041;-70
2022/08/13 11:53:10;;;;;;;3.00;2.15;;;29.30;69.90;;;;;;5060834;28;20384;-69
2022/08/13 11:55:36;;;;;;;2.55;2.25;;;29.30;71.20;;;;;;5045846;28;20041;-70
2022/08/13 11:58:05;;;;;;;4.07;2.00;;;29.30;73.70;;;;;;5041737;28;20328;-70
2022/08/13 12:00:35;;;;;;;2.40;2.20;;;29.40;72.40;;;;;;5041733;28;20049;-69
2022/08/13 12:03:00;;;;;;;2.20;2.00;;;29.30;72.60;;;;;;5046604;28;20037;-69
2022/08/13 12:05:26;;;;;;;3.33;2.03;;;29.10;72.90;;;;;;5046041;28;20037;-70
2022/08/13 12:07:52;;;;;;;2.35;1.90;;;29.00;73.10;;;;;;5040703;28;20120;-69
2022/08/13 12:10:18;;;;;;;4.15;2.30;;;28.80;72.50;;;;;;5039080;28;20029;-69
2022/08/13 12:12:44;;;;;;;3.58;2.30;;;28.80;71.40;;;;;;5044485;28;20044;-69
2022/08/13 12:15:11;;;;;;;4.75;2.28;;;28.80;71.60;;;;;;5039600;28;20065;-69
2022/08/13 12:17:42;;;;;;;3.60;2.38;;;28.90;73.30;;;;;;5043327;28;20119;-69
2022/08/13 12:20:10;;;;;;;5.13;2.00;;;28.90;72.80;;;;;;5044295;28;20586;-70
2022/08/13 12:22:36;;;;;;;2.60;2.00;;;29.00;72.90;;;;;;5041305;28;20519;-69
2022/08/13 12:25:02;;;;;;;5.80;2.30;;;29.10;72.30;;;;;;5045072;28;20051;-68
2022/08/13 12:27:28;;;;;;;3.92;1.95;;;29.20;72.70;;;;;;5044045;28;20455;-69
2022/08/13 12:29:54;;;;;;;5.18;2.53;;;29.30;70.70;;;;;;5056217;28;20045;-69
2022/08/13 12:32:19;;;;;;;2.47;2.05;;;29.40;69.90;;;;;;5054622;28;20605;-68
2022/08/13 12:34:45;;;;;;;2.58;2.25;;;29.50;70.40;;;;;;5045084;28;20107;-70
2022/08/13 12:37:11;;;;;;;4.80;2.25;;;29.50;70.20;;;;;;5044068;28;20414;-69
2022/08/13 12:39:37;;;;;;;4.47;2.60;;;29.60;69.60;;;;;;5059582;28;20049;-69
2022/08/13 12:42:03;;;;;;;2.65;2.25;;;29.60;70.10;;;;;;5059419;28;20476;-68
2022/08/13 12:44:28;;;;;;;2.55;2.20;;;29.60;70.00;;;;;;5043644;28;20496;-70
2022/08/13 12:46:54;;;;;;;3.53;2.33;;;29.50;68.40;;;;;;5043219;28;20601;-69
2022/08/13 12:49:19;;;;;;;2.65;2.30;;;29.50;68.80;;;;;;5041285;28;20033;-69
2022/08/13 12:51:45;;;;;;;4.50;2.30;;;29.50;68.90;;;;;;5044120;28;20102;-66
2022/08/13 12:54:10;;;;;;;5.80;2.47;;;29.50;69.80;;;;;;5059335;28;20055;-67
2022/08/13 12:56:37;;;;;;;4.30;2.40;;;29.40;70.80;;;;;;5040686;28;20135;-66
2022/08/13 12:59:03;;;;;;;4.53;2.42;;;29.30;70.90;;;;;;5042986;28;20439;-65
2022/08/13 13:01:32;;;;;;;3.13;2.55;;;29.30;71.90;;;;;;5039948;28;20040;-66
2022/08/13 13:03:58;;;;;;;5.50;2.50;;;29.30;71.30;;;;;;5055783;28;20526;-68
2022/08/13 13:06:23;;;;;;;2.78;2.17;;;29.40;67.20;;;;;;5043630;28;20045;-66
2022/08/13 13:08:49;;;;;;;2.40;2.20;;;29.40;69.10;;;;;;5044004;28;20392;-68
2022/08/13 13:11:14;;;;;;;3.58;2.60;;;29.50;70.50;;;;;;5043134;28;20087;-66
2022/08/13 13:13:42;;;;;;;5.55;2.50;;;29.50;69.70;;;;;;5057654;28;20442;-66